sensor_id;sensor_type;location;lat;lon;timestamp;temperature;humidity
22645;DHT22;11489;50.834;6.752;2022-07-30T00:00:23;16.00;65.60
22645;DHT22;11489;50.834;6.752;2022-07-30T00:02:49;16.00;65.70
22645;DHT22;11489;50.834;6.752;2022-07-30T00:05:15;15.90;65.70
22645;DHT22;11489;50.834;6.752;2022-07-30T00:07:40;15.90;65.90
22645;DHT22;11489;50.834;6.752;2022-07-30T00:10:06;15.90;66.00
22645;DHT22;11489;50.834;6.752;2022-07-30T00:12:32;15.90;66.10
22645;DHT22;11489;50.834;6.752;2022-07-30T00:14:58;15.80;66.10
22645;DHT22;11489;50.834;6.752;2022-07-30T00:17:24;15.80;66.30
22645;DHT22;11489;50.834;6.752;2022-07-30T00:19:49;15.80;66.40
22645;DHT22;11489;50.834;6.752;2022-07-30T00:22:15;15.70;66.40
22645;DHT22;11489;50.834;6.752;2022-07-30T00:24:41;15.70;66.50
22645;DHT22;11489;50.834;6.752;2022-07-30T00:27:06;15.70;66.50
22645;DHT22;11489;50.834;6.752;2022-07-30T00:29:32;15.60;66.50
22645;DHT22;11489;50.834;6.752;2022-07-30T00:31:58;15.60;66.60
22645;DHT22;11489;50.834;6.752;2022-07-30T00:34:23;15.60;66.70
22645;DHT22;11489;50.834;6.752;2022-07-30T00:36:49;15.50;66.70
22645;DHT22;11489;50.834;6.752;2022-07-30T00:39:15;15.50;66.90
22645;DHT22;11489;50.834;6.752;2022-07-30T00:42:01;15.40;67.00
22645;DHT22;11489;50.834;6.752;2022-07-30T00:44:28;15.40;68.50
22645;DHT22;11489;50.834;6.752;2022-07-30T00:46:54;15.40;67.20
22645;DHT22;11489;50.834;6.752;2022-07-30T00:49:20;15.30;67.40
22645;DHT22;11489;50.834;6.752;2022-07-30T00:51:48;15.30;67.60
22645;DHT22;11489;50.834;6.752;2022-07-30T00:54:14;15.20;67.80
22645;DHT22;11489;50.834;6.752;2022-07-30T00:56:41;15.20;67.90
22645;DHT22;11489;50.834;6.752;2022-07-30T00:59:07;15.20;68.00
22645;DHT22;11489;50.834;6.752;2022-07-30T01:01:34;15.10;68.00
22645;DHT22;11489;50.834;6.752;2022-07-30T01:04:00;15.10;68.20
22645;DHT22;11489;50.834;6.752;2022-07-30T01:06:26;15.10;68.20
22645;DHT22;11489;50.834;6.752;2022-07-30T01:08:51;15.10;68.40
22645;DHT22;11489;50.834;6.752;2022-07-30T01:11:19;15.00;68.40
22645;DHT22;11489;50.834;6.752;2022-07-30T01:13:44;15.00;68.50
22645;DHT22;11489;50.834;6.752;2022-07-30T01:16:11;15.00;68.60
22645;DHT22;11489;50.834;6.752;2022-07-30T01:18:37;14.90;68.70
22645;DHT22;11489;50.834;6.752;2022-07-30T01:21:31;14.90;68.90
22645;DHT22;11489;50.834;6.752;2022-07-30T01:24:19;14.90;69.20
22645;DHT22;11489;50.834;6.752;2022-07-30T01:26:47;14.90;69.60
22645;DHT22;11489;50.834;6.752;2022-07-30T01:29:14;14.80;69.10
22645;DHT22;11489;50.834;6.752;2022-07-30T01:31:42;14.80;69.50
22645;DHT22;11489;50.834;6.752;2022-07-30T01:34:09;14.90;69.80
22645;DHT22;11489;50.834;6.752;2022-07-30T01:36:40;14.90;69.80
22645;DHT22;11489;50.834;6.752;2022-07-30T01:39:06;14.90;69.90
22645;DHT22;11489;50.834;6.752;2022-07-30T01:41:33;14.90;69.90
22645;DHT22;11489;50.834;6.752;2022-07-30T01:44:00;15.00;70.00
22645;DHT22;11489;50.834;6.752;2022-07-30T01:46:27;15.00;69.90
22645;DHT22;11489;50.834;6.752;2022-07-30T01:48:55;15.10;70.00
22645;DHT22;11489;50.834;6.752;2022-07-30T01:51:21;15.10;69.90
22645;DHT22;11489;50.834;6.752;2022-07-30T01:53:49;15.20;69.90
22645;DHT22;11489;50.834;6.752;2022-07-30T01:56:18;15.30;69.90
22645;DHT22;11489;50.834;6.752;2022-07-30T01:58:48;15.30;69.80
22645;DHT22;11489;50.834;6.752;2022-07-30T02:01:15;15.30;69.80
22645;DHT22;11489;50.834;6.752;2022-07-30T02:03:42;15.30;69.50
22645;DHT22;11489;50.834;6.752;2022-07-30T02:06:15;15.30;69.60
22645;DHT22;11489;50.834;6.752;2022-07-30T02:08:53;15.40;69.70
22645;DHT22;11489;50.834;6.752;2022-07-30T02:11:20;15.50;69.90
22645;DHT22;11489;50.834;6.752;2022-07-30T02:14:23;15.50;69.50
22645;DHT22;11489;50.834;6.752;2022-07-30T02:16:53;15.50;70.40
22645;DHT22;11489;50.834;6.752;2022-07-30T02:22:45;15.60;70.40
22645;DHT22;11489;50.834;6.752;2022-07-30T02:25:22;15.60;69.20
22645;DHT22;11489;50.834;6.752;2022-07-30T02:27:56;15.50;69.20
22645;DHT22;11489;50.834;6.752;2022-07-30T02:30:33;15.50;69.40
22645;DHT22;11489;50.834;6.752;2022-07-30T02:33:06;15.60;69.40
22645;DHT22;11489;50.834;6.752;2022-07-30T02:35:38;15.60;69.30
22645;DHT22;11489;50.834;6.752;2022-07-30T02:38:10;15.60;69.30
22645;DHT22;11489;50.834;6.752;2022-07-30T02:40:41;15.60;69.20
22645;DHT22;11489;50.834;6.752;2022-07-30T02:43:14;15.60;69.40
22645;DHT22;11489;50.834;6.752;2022-07-30T02:45:43;15.50;69.30
22645;DHT22;11489;50.834;6.752;2022-07-30T02:48:13;15.60;69.30
22645;DHT22;11489;50.834;6.752;2022-07-30T02:50:43;15.60;69.40
22645;DHT22;11489;50.834;6.752;2022-07-30T02:53:11;15.60;69.30
22645;DHT22;11489;50.834;6.752;2022-07-30T02:55:41;15.60;69.40
22645;DHT22;11489;50.834;6.752;2022-07-30T02:58:24;15.60;69.50
22645;DHT22;11489;50.834;6.752;2022-07-30T03:00:53;15.60;70.50
22645;DHT22;11489;50.834;6.752;2022-07-30T03:03:21;15.60;69.20
22645;DHT22;11489;50.834;6.752;2022-07-30T03:05:55;15.60;69.20
22645;DHT22;11489;50.834;6.752;2022-07-30T03:08:26;15.60;69.50
22645;DHT22;11489;50.834;6.752;2022-07-30T03:10:55;15.60;69.30
22645;DHT22;11489;50.834;6.752;2022-07-30T03:13:25;15.60;69.30
22645;DHT22;11489;50.834;6.752;2022-07-30T03:15:53;15.60;69.20
22645;DHT22;11489;50.834;6.752;2022-07-30T03:18:22;15.50;69.30
22645;DHT22;11489;50.834;6.752;2022-07-30T03:20:54;15.50;69.30
22645;DHT22;11489;50.834;6.752;2022-07-30T03:23:22;15.50;69.40
22645;DHT22;11489;50.834;6.752;2022-07-30T03:26:00;15.50;69.40
22645;DHT22;11489;50.834;6.752;2022-07-30T03:28:35;15.50;70.10
22645;DHT22;11489;50.834;6.752;2022-07-30T03:31:04;15.40;69.60
22645;DHT22;11489;50.834;6.752;2022-07-30T03:33:31;15.40;69.50
22645;DHT22;11489;50.834;6.752;2022-07-30T03:35:59;15.40;69.60
22645;DHT22;11489;50.834;6.752;2022-07-30T03:38:26;15.40;70.40
22645;DHT22;11489;50.834;6.752;2022-07-30T03:40:54;15.40;69.70
22645;DHT22;11489;50.834;6.752;2022-07-30T03:43:21;15.30;69.70
22645;DHT22;11489;50.834;6.752;2022-07-30T03:45:49;15.30;69.70
22645;DHT22;11489;50.834;6.752;2022-07-30T03:48:15;15.30;69.80
22645;DHT22;11489;50.834;6.752;2022-07-30T03:50:41;15.30;69.80
22645;DHT22;11489;50.834;6.752;2022-07-30T03:53:08;15.30;69.80
22645;DHT22;11489;50.834;6.752;2022-07-30T03:55:34;15.20;69.80
22645;DHT22;11489;50.834;6.752;2022-07-30T03:58:01;15.20;69.90
22645;DHT22;11489;50.834;6.752;2022-07-30T04:00:28;15.20;69.90
22645;DHT22;11489;50.834;6.752;2022-07-30T04:02:54;15.10;69.90
22645;DHT22;11489;50.834;6.752;2022-07-30T04:07:50;15.10;70.20
22645;DHT22;11489;50.834;6.752;2022-07-30T04:10:16;15.00;70.20
22645;DHT22;11489;50.834;6.752;2022-07-30T04:12:42;15.00;70.30
22645;DHT22;11489;50.834;6.752;2022-07-30T04:15:08;15.00;70.40
22645;DHT22;11489;50.834;6.752;2022-07-30T04:17:48;14.90;70.50
22645;DHT22;11489;50.834;6.752;2022-07-30T04:20:23;14.90;70.70
22645;DHT22;11489;50.834;6.752;2022-07-30T04:22:49;14.90;71.20
22645;DHT22;11489;50.834;6.752;2022-07-30T04:25:15;14.90;70.70
22645;DHT22;11489;50.834;6.752;2022-07-30T04:27:42;14.90;70.90
22645;DHT22;11489;50.834;6.752;2022-07-30T04:30:09;14.80;71.10
22645;DHT22;11489;50.834;6.752;2022-07-30T04:32:35;14.80;71.40
22645;DHT22;11489;50.834;6.752;2022-07-30T04:35:01;14.90;71.80
22645;DHT22;11489;50.834;6.752;2022-07-30T04:37:29;14.90;72.00
22645;DHT22;11489;50.834;6.752;2022-07-30T04:39:55;15.00;72.40
22645;DHT22;11489;50.834;6.752;2022-07-30T04:42:28;15.10;72.50
22645;DHT22;11489;50.834;6.752;2022-07-30T04:44:55;15.20;72.50
22645;DHT22;11489;50.834;6.752;2022-07-30T04:47:22;15.40;72.40
22645;DHT22;11489;50.834;6.752;2022-07-30T04:49:48;15.40;72.30
22645;DHT22;11489;50.834;6.752;2022-07-30T04:52:15;15.50;72.10
22645;DHT22;11489;50.834;6.752;2022-07-30T04:54:45;15.60;72.00
22645;DHT22;11489;50.834;6.752;2022-07-30T04:57:14;15.70;71.80
22645;DHT22;11489;50.834;6.752;2022-07-30T04:59:41;15.70;71.60
22645;DHT22;11489;50.834;6.752;2022-07-30T05:02:08;15.70;71.50
22645;DHT22;11489;50.834;6.752;2022-07-30T05:04:35;15.70;71.50
22645;DHT22;11489;50.834;6.752;2022-07-30T05:07:02;15.80;71.40
22645;DHT22;11489;50.834;6.752;2022-07-30T05:09:29;15.90;71.50
22645;DHT22;11489;50.834;6.752;2022-07-30T05:11:56;15.90;71.60
22645;DHT22;11489;50.834;6.752;2022-07-30T05:14:23;15.90;71.50
22645;DHT22;11489;50.834;6.752;2022-07-30T05:16:50;15.90;71.60
22645;DHT22;11489;50.834;6.752;2022-07-30T05:19:16;16.00;71.60
22645;DHT22;11489;50.834;6.752;2022-07-30T05:21:43;16.00;71.60
22645;DHT22;11489;50.834;6.752;2022-07-30T05:24:09;16.10;71.60
22645;DHT22;11489;50.834;6.752;2022-07-30T05:26:34;16.20;71.70
22645;DHT22;11489;50.834;6.752;2022-07-30T05:29:00;16.20;71.70
22645;DHT22;11489;50.834;6.752;2022-07-30T05:31:26;16.30;71.70
22645;DHT22;11489;50.834;6.752;2022-07-30T05:33:52;16.40;71.70
22645;DHT22;11489;50.834;6.752;2022-07-30T05:36:18;16.40;71.70
22645;DHT22;11489;50.834;6.752;2022-07-30T05:38:44;16.50;71.70
22645;DHT22;11489;50.834;6.752;2022-07-30T05:41:10;16.60;71.70
22645;DHT22;11489;50.834;6.752;2022-07-30T05:43:36;16.70;71.70
22645;DHT22;11489;50.834;6.752;2022-07-30T05:46:02;16.70;71.80
22645;DHT22;11489;50.834;6.752;2022-07-30T05:48:28;16.80;71.80
22645;DHT22;11489;50.834;6.752;2022-07-30T05:50:55;16.90;71.60
22645;DHT22;11489;50.834;6.752;2022-07-30T05:53:21;16.90;71.70
22645;DHT22;11489;50.834;6.752;2022-07-30T05:55:47;17.00;72.60
22645;DHT22;11489;50.834;6.752;2022-07-30T05:58:13;17.10;71.90
22645;DHT22;11489;50.834;6.752;2022-07-30T06:00:38;17.20;72.00
22645;DHT22;11489;50.834;6.752;2022-07-30T06:03:04;17.20;71.80
22645;DHT22;11489;50.834;6.752;2022-07-30T06:05:30;17.30;71.60
22645;DHT22;11489;50.834;6.752;2022-07-30T06:07:57;17.30;71.50
22645;DHT22;11489;50.834;6.752;2022-07-30T06:10:22;17.40;71.50
22645;DHT22;11489;50.834;6.752;2022-07-30T06:12:48;17.40;71.50
22645;DHT22;11489;50.834;6.752;2022-07-30T06:15:14;17.50;71.30
22645;DHT22;11489;50.834;6.752;2022-07-30T06:17:44;17.60;71.20
22645;DHT22;11489;50.834;6.752;2022-07-30T06:20:12;17.60;71.30
22645;DHT22;11489;50.834;6.752;2022-07-30T06:22:38;17.60;71.10
22645;DHT22;11489;50.834;6.752;2022-07-30T06:25:05;17.60;70.90
22645;DHT22;11489;50.834;6.752;2022-07-30T06:27:31;17.70;70.90
22645;DHT22;11489;50.834;6.752;2022-07-30T06:29:59;17.80;71.70
22645;DHT22;11489;50.834;6.752;2022-07-30T06:32:25;17.80;71.00
22645;DHT22;11489;50.834;6.752;2022-07-30T06:34:51;17.80;71.10
22645;DHT22;11489;50.834;6.752;2022-07-30T06:37:17;17.90;71.30
22645;DHT22;11489;50.834;6.752;2022-07-30T06:39:42;17.90;71.10
22645;DHT22;11489;50.834;6.752;2022-07-30T06:42:08;18.00;71.00
22645;DHT22;11489;50.834;6.752;2022-07-30T06:44:34;18.00;71.10
22645;DHT22;11489;50.834;6.752;2022-07-30T06:47:00;18.10;71.00
22645;DHT22;11489;50.834;6.752;2022-07-30T06:49:26;18.10;71.10
22645;DHT22;11489;50.834;6.752;2022-07-30T06:51:51;18.20;71.00
22645;DHT22;11489;50.834;6.752;2022-07-30T06:54:17;18.20;71.00
22645;DHT22;11489;50.834;6.752;2022-07-30T06:56:43;18.30;71.10
22645;DHT22;11489;50.834;6.752;2022-07-30T06:59:08;18.40;71.00
22645;DHT22;11489;50.834;6.752;2022-07-30T07:01:34;18.50;71.10
22645;DHT22;11489;50.834;6.752;2022-07-30T07:04:00;18.60;71.00
22645;DHT22;11489;50.834;6.752;2022-07-30T07:06:25;18.70;70.80
22645;DHT22;11489;50.834;6.752;2022-07-30T07:08:51;18.80;70.30
22645;DHT22;11489;50.834;6.752;2022-07-30T07:11:17;18.80;70.10
22645;DHT22;11489;50.834;6.752;2022-07-30T07:13:42;18.90;70.10
22645;DHT22;11489;50.834;6.752;2022-07-30T07:16:08;18.90;69.90
22645;DHT22;11489;50.834;6.752;2022-07-30T07:18:34;19.00;69.90
22645;DHT22;11489;50.834;6.752;2022-07-30T07:20:59;19.00;70.00
22645;DHT22;11489;50.834;6.752;2022-07-30T07:23:25;19.10;69.90
22645;DHT22;11489;50.834;6.752;2022-07-30T07:25:51;19.10;69.60
22645;DHT22;11489;50.834;6.752;2022-07-30T07:28:16;19.10;69.20
22645;DHT22;11489;50.834;6.752;2022-07-30T07:30:42;19.20;69.20
22645;DHT22;11489;50.834;6.752;2022-07-30T07:33:08;19.20;69.30
22645;DHT22;11489;50.834;6.752;2022-07-30T07:35:34;19.20;69.50
22645;DHT22;11489;50.834;6.752;2022-07-30T07:38:00;19.20;69.70
22645;DHT22;11489;50.834;6.752;2022-07-30T07:40:26;19.30;69.50
22645;DHT22;11489;50.834;6.752;2022-07-30T07:42:52;19.30;69.50
22645;DHT22;11489;50.834;6.752;2022-07-30T07:45:18;19.30;69.20
22645;DHT22;11489;50.834;6.752;2022-07-30T07:47:48;19.30;69.10
22645;DHT22;11489;50.834;6.752;2022-07-30T07:50:15;19.40;69.40
22645;DHT22;11489;50.834;6.752;2022-07-30T07:52:41;19.50;69.60
22645;DHT22;11489;50.834;6.752;2022-07-30T07:55:07;19.60;69.80
22645;DHT22;11489;50.834;6.752;2022-07-30T07:57:41;19.70;69.90
22645;DHT22;11489;50.834;6.752;2022-07-30T08:00:09;19.90;69.60
22645;DHT22;11489;50.834;6.752;2022-07-30T08:02:35;20.00;69.40
22645;DHT22;11489;50.834;6.752;2022-07-30T08:05:02;20.10;69.30
22645;DHT22;11489;50.834;6.752;2022-07-30T08:07:28;20.30;69.30
22645;DHT22;11489;50.834;6.752;2022-07-30T08:09:55;20.40;68.70
22645;DHT22;11489;50.834;6.752;2022-07-30T08:12:20;20.50;68.30
22645;DHT22;11489;50.834;6.752;2022-07-30T08:14:46;20.60;67.80
22645;DHT22;11489;50.834;6.752;2022-07-30T08:17:12;20.70;67.80
22645;DHT22;11489;50.834;6.752;2022-07-30T08:19:38;20.80;67.90
22645;DHT22;11489;50.834;6.752;2022-07-30T08:22:04;20.90;67.70
22645;DHT22;11489;50.834;6.752;2022-07-30T08:24:29;21.00;67.40
22645;DHT22;11489;50.834;6.752;2022-07-30T08:26:55;21.10;66.90
22645;DHT22;11489;50.834;6.752;2022-07-30T08:29:21;21.20;66.90
22645;DHT22;11489;50.834;6.752;2022-07-30T08:31:47;21.30;66.70
22645;DHT22;11489;50.834;6.752;2022-07-30T08:34:13;21.40;66.50
22645;DHT22;11489;50.834;6.752;2022-07-30T08:36:38;21.50;66.30
22645;DHT22;11489;50.834;6.752;2022-07-30T08:39:04;21.50;66.20
22645;DHT22;11489;50.834;6.752;2022-07-30T08:41:30;21.60;66.10
22645;DHT22;11489;50.834;6.752;2022-07-30T08:43:59;21.70;66.10
22645;DHT22;11489;50.834;6.752;2022-07-30T08:46:30;21.80;66.00
22645;DHT22;11489;50.834;6.752;2022-07-30T08:48:56;21.90;66.10
22645;DHT22;11489;50.834;6.752;2022-07-30T08:51:23;22.10;66.10
22645;DHT22;11489;50.834;6.752;2022-07-30T08:53:50;22.20;65.30
22645;DHT22;11489;50.834;6.752;2022-07-30T08:56:16;22.40;64.70
22645;DHT22;11489;50.834;6.752;2022-07-30T08:58:42;22.50;64.60
22645;DHT22;11489;50.834;6.752;2022-07-30T09:01:10;22.50;64.30
22645;DHT22;11489;50.834;6.752;2022-07-30T09:03:37;22.70;64.30
22645;DHT22;11489;50.834;6.752;2022-07-30T09:06:04;22.80;63.70
22645;DHT22;11489;50.834;6.752;2022-07-30T09:08:30;22.90;63.10
22645;DHT22;11489;50.834;6.752;2022-07-30T09:10:56;23.00;62.90
22645;DHT22;11489;50.834;6.752;2022-07-30T09:15:52;23.20;62.00
22645;DHT22;11489;50.834;6.752;2022-07-30T09:18:38;23.30;61.90
22645;DHT22;11489;50.834;6.752;2022-07-30T09:21:24;23.40;60.40
22645;DHT22;11489;50.834;6.752;2022-07-30T09:24:04;23.60;60.70
22645;DHT22;11489;50.834;6.752;2022-07-30T09:26:31;23.90;60.40
22645;DHT22;11489;50.834;6.752;2022-07-30T09:29:18;24.10;61.30
22645;DHT22;11489;50.834;6.752;2022-07-30T09:31:59;24.40;59.30
22645;DHT22;11489;50.834;6.752;2022-07-30T09:37:00;24.80;59.60
22645;DHT22;11489;50.834;6.752;2022-07-30T09:39:33;25.00;58.60
22645;DHT22;11489;50.834;6.752;2022-07-30T09:42:00;25.20;57.40
22645;DHT22;11489;50.834;6.752;2022-07-30T09:44:27;25.20;57.10
22645;DHT22;11489;50.834;6.752;2022-07-30T09:46:55;25.20;56.70
22645;DHT22;11489;50.834;6.752;2022-07-30T09:49:26;25.20;56.80
22645;DHT22;11489;50.834;6.752;2022-07-30T09:51:53;25.30;56.70
22645;DHT22;11489;50.834;6.752;2022-07-30T09:54:19;25.50;56.60
22645;DHT22;11489;50.834;6.752;2022-07-30T09:56:45;25.60;56.00
22645;DHT22;11489;50.834;6.752;2022-07-30T09:59:28;25.70;54.60
22645;DHT22;11489;50.834;6.752;2022-07-30T10:01:55;25.70;54.00
22645;DHT22;11489;50.834;6.752;2022-07-30T10:04:26;25.60;54.40
22645;DHT22;11489;50.834;6.752;2022-07-30T10:06:53;25.50;54.10
22645;DHT22;11489;50.834;6.752;2022-07-30T10:09:31;25.60;54.10
22645;DHT22;11489;50.834;6.752;2022-07-30T10:12:00;25.60;53.80
22645;DHT22;11489;50.834;6.752;2022-07-30T10:14:34;25.60;54.80
22645;DHT22;11489;50.834;6.752;2022-07-30T10:17:01;25.70;53.20
22645;DHT22;11489;50.834;6.752;2022-07-30T10:19:27;25.80;53.40
22645;DHT22;11489;50.834;6.752;2022-07-30T10:21:53;25.80;53.40
22645;DHT22;11489;50.834;6.752;2022-07-30T10:24:23;25.90;52.40
22645;DHT22;11489;50.834;6.752;2022-07-30T10:26:51;26.00;52.30
22645;DHT22;11489;50.834;6.752;2022-07-30T10:29:18;26.10;51.80
22645;DHT22;11489;50.834;6.752;2022-07-30T10:31:45;26.10;51.70
22645;DHT22;11489;50.834;6.752;2022-07-30T10:34:12;26.20;52.00
22645;DHT22;11489;50.834;6.752;2022-07-30T10:36:44;26.30;52.10
22645;DHT22;11489;50.834;6.752;2022-07-30T10:39:15;26.50;51.40
22645;DHT22;11489;50.834;6.752;2022-07-30T10:47:12;27.00;50.20
22645;DHT22;11489;50.834;6.752;2022-07-30T10:49:39;27.00;50.00
22645;DHT22;11489;50.834;6.752;2022-07-30T10:52:05;27.10;50.40
22645;DHT22;11489;50.834;6.752;2022-07-30T10:54:40;27.20;50.00
22645;DHT22;11489;50.834;6.752;2022-07-30T10:57:14;27.40;48.70
22645;DHT22;11489;50.834;6.752;2022-07-30T11:02:24;27.80;48.30
22645;DHT22;11489;50.834;6.752;2022-07-30T11:05:20;27.90;48.00
22645;DHT22;11489;50.834;6.752;2022-07-30T11:07:36;28.00;48.10
22645;DHT22;11489;50.834;6.752;2022-07-30T11:10:01;28.10;47.90
22645;DHT22;11489;50.834;6.752;2022-07-30T11:15:11;28.30;46.50
22645;DHT22;11489;50.834;6.752;2022-07-30T11:17:57;28.40;46.80
22645;DHT22;11489;50.834;6.752;2022-07-30T11:20:23;28.40;45.10
22645;DHT22;11489;50.834;6.752;2022-07-30T11:22:49;28.30;45.40
22645;DHT22;11489;50.834;6.752;2022-07-30T11:27:48;28.30;43.90
22645;DHT22;11489;50.834;6.752;2022-07-30T11:32:44;28.30;43.90
22645;DHT22;11489;50.834;6.752;2022-07-30T11:40:21;28.50;43.80
22645;DHT22;11489;50.834;6.752;2022-07-30T11:42:48;28.60;44.60
22645;DHT22;11489;50.834;6.752;2022-07-30T11:47:47;28.90;43.70
22645;DHT22;11489;50.834;6.752;2022-07-30T11:50:33;29.00;42.80
22645;DHT22;11489;50.834;6.752;2022-07-30T11:53:14;29.00;41.40
22645;DHT22;11489;50.834;6.752;2022-07-30T11:55:43;29.10;41.00
22645;DHT22;11489;50.834;6.752;2022-07-30T12:00:49;28.90;41.50
22645;DHT22;11489;50.834;6.752;2022-07-30T12:03:19;28.90;42.20
22645;DHT22;11489;50.834;6.752;2022-07-30T12:05:46;29.00;42.70
22645;DHT22;11489;50.834;6.752;2022-07-30T12:08:12;29.10;42.70
22645;DHT22;11489;50.834;6.752;2022-07-30T12:10:38;29.20;42.70
22645;DHT22;11489;50.834;6.752;2022-07-30T12:13:15;29.20;42.20
22645;DHT22;11489;50.834;6.752;2022-07-30T12:15:42;29.30;41.80
22645;DHT22;11489;50.834;6.752;2022-07-30T12:18:09;29.40;42.10
22645;DHT22;11489;50.834;6.752;2022-07-30T12:20:41;29.40;41.30
22645;DHT22;11489;50.834;6.752;2022-07-30T12:23:13;29.40;40.60
22645;DHT22;11489;50.834;6.752;2022-07-30T12:25:41;29.40;40.30
22645;DHT22;11489;50.834;6.752;2022-07-30T12:28:08;29.30;40.90
22645;DHT22;11489;50.834;6.752;2022-07-30T12:30:37;29.30;40.90
22645;DHT22;11489;50.834;6.752;2022-07-30T12:33:03;29.20;40.50
22645;DHT22;11489;50.834;6.752;2022-07-30T12:35:50;29.20;40.60
22645;DHT22;11489;50.834;6.752;2022-07-30T12:38:17;29.10;39.70
22645;DHT22;11489;50.834;6.752;2022-07-30T12:40:56;29.00;39.50
22645;DHT22;11489;50.834;6.752;2022-07-30T12:43:42;28.80;39.20
22645;DHT22;11489;50.834;6.752;2022-07-30T12:46:10;28.70;40.10
22645;DHT22;11489;50.834;6.752;2022-07-30T12:48:35;28.60;40.50
22645;DHT22;11489;50.834;6.752;2022-07-30T12:51:08;28.70;40.50
22645;DHT22;11489;50.834;6.752;2022-07-30T12:53:35;28.70;39.90
22645;DHT22;11489;50.834;6.752;2022-07-30T12:56:10;28.80;40.40
22645;DHT22;11489;50.834;6.752;2022-07-30T12:58:36;28.80;40.00
22645;DHT22;11489;50.834;6.752;2022-07-30T13:01:02;28.90;40.80
22645;DHT22;11489;50.834;6.752;2022-07-30T13:03:28;29.10;40.90
22645;DHT22;11489;50.834;6.752;2022-07-30T13:06:17;29.30;40.80
22645;DHT22;11489;50.834;6.752;2022-07-30T13:11:13;29.50;39.50
22645;DHT22;11489;50.834;6.752;2022-07-30T13:13:40;29.60;39.60
22645;DHT22;11489;50.834;6.752;2022-07-30T13:16:06;29.70;39.40
22645;DHT22;11489;50.834;6.752;2022-07-30T13:18:33;29.60;39.50
22645;DHT22;11489;50.834;6.752;2022-07-30T13:21:01;29.70;39.70
22645;DHT22;11489;50.834;6.752;2022-07-30T13:23:27;29.80;39.60
22645;DHT22;11489;50.834;6.752;2022-07-30T13:25:54;29.90;39.50
22645;DHT22;11489;50.834;6.752;2022-07-30T13:28:20;29.90;39.20
22645;DHT22;11489;50.834;6.752;2022-07-30T13:30:46;29.90;38.90
22645;DHT22;11489;50.834;6.752;2022-07-30T13:33:12;30.00;39.00
22645;DHT22;11489;50.834;6.752;2022-07-30T13:35:38;30.00;38.80
22645;DHT22;11489;50.834;6.752;2022-07-30T13:38:05;30.00;38.20
22645;DHT22;11489;50.834;6.752;2022-07-30T13:40:32;30.00;37.40
22645;DHT22;11489;50.834;6.752;2022-07-30T13:42:59;29.90;37.40
22645;DHT22;11489;50.834;6.752;2022-07-30T13:45:25;29.70;37.60
22645;DHT22;11489;50.834;6.752;2022-07-30T13:47:50;29.70;38.00
22645;DHT22;11489;50.834;6.752;2022-07-30T13:50:17;29.70;38.30
22645;DHT22;11489;50.834;6.752;2022-07-30T13:52:43;29.70;38.40
22645;DHT22;11489;50.834;6.752;2022-07-30T13:55:09;29.80;38.20
22645;DHT22;11489;50.834;6.752;2022-07-30T13:57:35;29.90;38.30
22645;DHT22;11489;50.834;6.752;2022-07-30T14:00:01;29.90;36.50
22645;DHT22;11489;50.834;6.752;2022-07-30T14:02:27;29.80;36.50
22645;DHT22;11489;50.834;6.752;2022-07-30T14:04:52;29.70;37.10
22645;DHT22;11489;50.834;6.752;2022-07-30T14:07:18;29.60;37.50
22645;DHT22;11489;50.834;6.752;2022-07-30T14:09:44;29.50;37.80
22645;DHT22;11489;50.834;6.752;2022-07-30T14:12:09;29.50;37.80
22645;DHT22;11489;50.834;6.752;2022-07-30T14:14:35;29.50;37.40
22645;DHT22;11489;50.834;6.752;2022-07-30T14:17:01;29.40;37.00
22645;DHT22;11489;50.834;6.752;2022-07-30T14:19:26;29.30;37.40
22645;DHT22;11489;50.834;6.752;2022-07-30T14:21:52;29.20;37.80
22645;DHT22;11489;50.834;6.752;2022-07-30T14:24:19;29.30;37.90
22645;DHT22;11489;50.834;6.752;2022-07-30T14:26:45;29.30;37.60
22645;DHT22;11489;50.834;6.752;2022-07-30T14:29:10;29.30;37.20
22645;DHT22;11489;50.834;6.752;2022-07-30T14:31:36;29.30;37.30
22645;DHT22;11489;50.834;6.752;2022-07-30T14:34:02;29.30;37.10
22645;DHT22;11489;50.834;6.752;2022-07-30T14:36:28;29.40;37.40
22645;DHT22;11489;50.834;6.752;2022-07-30T14:38:55;29.40;35.80
22645;DHT22;11489;50.834;6.752;2022-07-30T14:41:22;29.40;36.30
22645;DHT22;11489;50.834;6.752;2022-07-30T14:43:48;29.40;36.60
22645;DHT22;11489;50.834;6.752;2022-07-30T14:47:03;29.40;36.90
22645;DHT22;11489;50.834;6.752;2022-07-30T14:49:29;29.60;36.70
22645;DHT22;11489;50.834;6.752;2022-07-30T14:51:58;29.70;36.40
22645;DHT22;11489;50.834;6.752;2022-07-30T14:54:25;29.80;35.90
22645;DHT22;11489;50.834;6.752;2022-07-30T14:56:59;29.80;35.90
22645;DHT22;11489;50.834;6.752;2022-07-30T14:59:26;29.80;36.10
22645;DHT22;11489;50.834;6.752;2022-07-30T15:01:52;29.90;35.90
22645;DHT22;11489;50.834;6.752;2022-07-30T15:04:26;29.90;35.80
22645;DHT22;11489;50.834;6.752;2022-07-30T15:06:51;29.90;36.10
22645;DHT22;11489;50.834;6.752;2022-07-30T15:09:17;29.90;36.40
22645;DHT22;11489;50.834;6.752;2022-07-30T15:11:44;30.00;36.20
22645;DHT22;11489;50.834;6.752;2022-07-30T15:14:13;29.90;35.50
22645;DHT22;11489;50.834;6.752;2022-07-30T15:16:39;29.90;35.60
22645;DHT22;11489;50.834;6.752;2022-07-30T15:19:05;29.90;36.10
22645;DHT22;11489;50.834;6.752;2022-07-30T15:21:30;29.90;36.30
22645;DHT22;11489;50.834;6.752;2022-07-30T15:23:56;30.10;36.50
22645;DHT22;11489;50.834;6.752;2022-07-30T15:26:22;30.20;36.40
22645;DHT22;11489;50.834;6.752;2022-07-30T15:28:47;30.30;36.30
22645;DHT22;11489;50.834;6.752;2022-07-30T15:31:13;30.40;36.20
22645;DHT22;11489;50.834;6.752;2022-07-30T15:33:39;30.40;36.10
22645;DHT22;11489;50.834;6.752;2022-07-30T15:36:10;30.50;36.30
22645;DHT22;11489;50.834;6.752;2022-07-30T15:38:36;30.60;36.30
22645;DHT22;11489;50.834;6.752;2022-07-30T15:41:02;30.70;36.30
22645;DHT22;11489;50.834;6.752;2022-07-30T15:43:28;30.80;35.90
22645;DHT22;11489;50.834;6.752;2022-07-30T15:45:54;30.90;36.10
22645;DHT22;11489;50.834;6.752;2022-07-30T15:48:19;30.90;36.10
22645;DHT22;11489;50.834;6.752;2022-07-30T15:50:45;31.00;35.50
22645;DHT22;11489;50.834;6.752;2022-07-30T15:53:11;30.90;35.50
22645;DHT22;11489;50.834;6.752;2022-07-30T15:55:37;30.90;35.70
22645;DHT22;11489;50.834;6.752;2022-07-30T15:58:03;30.90;35.80
22645;DHT22;11489;50.834;6.752;2022-07-30T16:00:29;30.80;35.80
22645;DHT22;11489;50.834;6.752;2022-07-30T16:02:55;30.80;35.80
22645;DHT22;11489;50.834;6.752;2022-07-30T16:05:21;30.70;35.40
22645;DHT22;11489;50.834;6.752;2022-07-30T16:07:47;30.70;35.50
22645;DHT22;11489;50.834;6.752;2022-07-30T16:10:13;30.50;35.30
22645;DHT22;11489;50.834;6.752;2022-07-30T16:12:39;30.50;35.50
22645;DHT22;11489;50.834;6.752;2022-07-30T16:15:08;30.30;35.50